Time;durP1;ratioP1;P1;durP2;ratioP2;P2;SDS_P1;SDS_P2;PMS_P1;PMS_P2;Temp;Humidity;BMP_temperature;BMP_pressure;BME280_temperature;BME280_humidity;BME280_pressure;Samples;Min_cycle;Max_cycle;Signal;HPM_P1;HPM_P2
2020/12/03 00:00:59;;;;;;;1.67;1.23;;;22.30;41.70;;;;;;5034456;28;20675;-46
2020/12/03 00:03:31;;;;;;;2.13;1.70;;;22.30;41.60;;;;;;5048361;28;20029;-45
2020/12/03 00:06:22;;;;;;;3.33;1.33;;;22.30;41.60;;;;;;5045978;28;20041;-47
2020/12/03 00:08:52;;;;;;;3.22;1.30;;;22.30;41.60;;;;;;5046254;28;20098;-46
2020/12/03 00:11:19;;;;;;;2.17;1.40;;;22.20;41.60;;;;;;5042122;28;20025;-44
2020/12/03 00:13:44;;;;;;;2.00;1.17;;;22.20;41.70;;;;;;5044578;28;20387;-45
2020/12/03 00:16:10;;;;;;;1.55;1.30;;;22.20;41.70;;;;;;5041071;28;20036;-45
2020/12/03 00:18:37;;;;;;;1.75;1.02;;;22.10;41.70;;;;;;5044398;28;20458;-45
2020/12/03 00:21:06;;;;;;;1.30;0.98;;;22.10;41.70;;;;;;5051241;28;20032;-47
2020/12/03 00:23:32;;;;;;;1.73;1.23;;;22.10;41.70;;;;;;5050139;28;20068;-45
2020/12/03 00:25:58;;;;;;;1.58;1.27;;;22.10;41.70;;;;;;5026601;28;20037;-46
2020/12/03 00:28:29;;;;;;;5.07;1.20;;;22.10;41.80;;;;;;5041090;28;20071;-45
2020/12/03 00:30:54;;;;;;;2.15;1.17;;;22.00;41.70;;;;;;5047941;28;20101;-46
2020/12/03 00:33:20;;;;;;;1.35;1.00;;;22.00;41.70;;;;;;5051408;28;20525;-47
2020/12/03 00:35:47;;;;;;;2.97;1.35;;;22.00;41.80;;;;;;5047198;28;20078;-48
2020/12/03 00:38:12;;;;;;;1.65;1.13;;;22.00;41.80;;;;;;5050275;28;20520;-45
2020/12/03 00:40:38;;;;;;;3.80;1.23;;;22.00;41.80;;;;;;5038260;28;20045;-47
2020/12/03 00:43:03;;;;;;;3.35;1.30;;;22.00;41.80;;;;;;5038991;28;20075;-44
2020/12/03 00:45:29;;;;;;;1.90;1.20;;;21.90;41.80;;;;;;5042620;28;20040;-48
2020/12/03 00:47:54;;;;;;;4.43;1.27;;;21.90;41.80;;;;;;5044962;28;20437;-46
2020/12/03 00:50:20;;;;;;;1.38;1.13;;;21.90;41.80;;;;;;5049838;28;20389;-47
2020/12/03 00:52:46;;;;;;;1.35;1.13;;;21.90;41.80;;;;;;5041391;28;20451;-45
2020/12/03 00:55:11;;;;;;;3.67;1.20;;;21.90;41.80;;;;;;5037872;28;20060;-44
2020/12/03 00:57:38;;;;;;;2.05;1.38;;;21.90;41.80;;;;;;5050900;28;20096;-47
2020/12/03 01:00:06;;;;;;;1.60;0.88;;;21.80;41.80;;;;;;5044532;28;20057;-45
2020/12/03 01:02:32;;;;;;;3.35;0.90;;;21.80;41.80;;;;;;5049196;28;20037;-48
2020/12/03 01:04:57;;;;;;;1.88;1.27;;;21.80;41.80;;;;;;5046317;28;20486;-46
2020/12/03 01:07:23;;;;;;;1.50;1.05;;;21.80;41.80;;;;;;5050781;28;20044;-46
2020/12/03 01:09:49;;;;;;;1.20;0.82;;;21.80;41.80;;;;;;5046679;28;20025;-44
2020/12/03 01:12:14;;;;;;;1.30;0.70;;;21.80;41.80;;;;;;5049616;28;20041;-46
2020/12/03 01:14:40;;;;;;;1.85;1.27;;;21.80;41.80;;;;;;5034992;28;20037;-47
2020/12/03 01:17:11;;;;;;;1.80;1.10;;;21.80;41.80;;;;;;5032646;28;20033;-46
2020/12/03 01:19:38;;;;;;;0.93;0.45;;;21.80;41.80;;;;;;5048726;28;20033;-46
2020/12/03 01:22:04;;;;;;;1.35;0.98;;;21.70;41.70;;;;;;5041324;28;20064;-45
2020/12/03 01:24:30;;;;;;;1.33;1.10;;;21.70;41.80;;;;;;5049564;28;20390;-45
2020/12/03 01:26:56;;;;;;;1.90;1.00;;;21.70;41.80;;;;;;5031680;28;20029;-46
2020/12/03 01:29:22;;;;;;;2.53;1.27;;;21.70;41.80;;;;;;5039235;28;20047;-46
2020/12/03 01:31:49;;;;;;;1.05;0.93;;;21.70;41.80;;;;;;5045409;28;20070;-43
2020/12/03 01:34:14;;;;;;;1.50;1.13;;;21.70;41.80;;;;;;5043396;28;20060;-46
2020/12/03 01:36:40;;;;;;;1.20;1.02;;;21.70;41.90;;;;;;5045603;28;20657;-45
2020/12/03 01:39:07;;;;;;;1.33;1.02;;;21.70;41.80;;;;;;5042049;28;20116;-46
2020/12/03 01:41:33;;;;;;;3.50;0.80;;;21.60;41.70;;;;;;5048086;28;20045;-47
2020/12/03 01:43:59;;;;;;;1.05;0.73;;;21.70;41.70;;;;;;5048919;28;20106;-45
2020/12/03 01:46:25;;;;;;;5.60;1.40;;;21.60;41.80;;;;;;5045312;28;20029;-46
2020/12/03 01:48:55;;;;;;;1.92;0.93;;;21.60;41.80;;;;;;5040338;28;20064;-46
2020/12/03 01:51:48;;;;;;;1.40;0.90;;;21.60;41.80;;;;;;5047285;28;20033;-47
2020/12/03 01:54:16;;;;;;;1.95;1.20;;;21.60;41.70;;;;;;5031603;28;20048;-44
2020/12/03 01:57:05;;;;;;;2.28;1.13;;;21.60;41.70;;;;;;5036622;28;20033;-46
2020/12/03 02:00:17;;;;;;;2.00;1.45;;;21.60;41.80;;;;;;5051135;28;20454;-46
2020/12/03 02:02:46;;;;;;;1.90;1.05;;;21.60;41.70;;;;;;5045549;28;20041;-49
2020/12/03 02:05:16;;;;;;;1.45;0.98;;;21.60;41.70;;;;;;5034188;28;20029;-47
2020/12/03 02:07:42;;;;;;;1.33;1.08;;;21.60;41.80;;;;;;5043399;28;20041;-47
2020/12/03 02:10:09;;;;;;;2.70;1.38;;;21.50;41.80;;;;;;5046819;28;20037;-46
2020/12/03 02:12:35;;;;;;;1.38;0.98;;;21.50;42.00;;;;;;5048582;28;20040;-46
2020/12/03 02:15:03;;;;;;;1.83;1.05;;;21.50;41.80;;;;;;5045254;28;20574;-46
2020/12/03 02:17:28;;;;;;;1.50;1.10;;;21.50;41.90;;;;;;5036926;28;20132;-47
2020/12/03 02:19:56;;;;;;;2.05;1.02;;;21.40;41.80;;;;;;5048277;28;20442;-47
2020/12/03 02:22:22;;;;;;;3.25;1.02;;;21.40;41.90;;;;;;5047458;28;20053;-45
2020/12/03 02:24:48;;;;;;;2.28;1.00;;;21.40;41.90;;;;;;5048332;28;20033;-43
2020/12/03 02:27:17;;;;;;;0.90;0.70;;;21.40;41.90;;;;;;5047637;28;20040;-45
2020/12/03 02:29:43;;;;;;;1.88;1.00;;;21.30;41.90;;;;;;5049248;28;20063;-47
2020/12/03 02:32:09;;;;;;;1.50;0.85;;;21.30;41.90;;;;;;5041575;28;20111;-46
2020/12/03 02:34:35;;;;;;;1.42;0.88;;;21.20;42.00;;;;;;5043025;28;20040;-48
2020/12/03 02:37:02;;;;;;;1.30;0.50;;;21.20;42.00;;;;;;5048471;28;20513;-49
2020/12/03 02:39:30;;;;;;;1.83;1.27;;;21.20;42.10;;;;;;5048124;28;20032;-45
2020/12/03 02:41:56;;;;;;;1.77;0.80;;;21.20;42.10;;;;;;5048277;28;20037;-48
2020/12/03 02:44:22;;;;;;;2.53;1.00;;;21.20;42.10;;;;;;5048134;28;20065;-47
2020/12/03 02:46:48;;;;;;;1.33;0.80;;;21.20;42.20;;;;;;5043555;28;20118;-47
2020/12/03 02:49:14;;;;;;;1.20;0.80;;;21.20;42.20;;;;;;5047377;28;20081;-48
2020/12/03 02:51:40;;;;;;;2.00;0.90;;;21.20;42.20;;;;;;5037130;28;20134;-45
2020/12/03 02:54:10;;;;;;;2.30;0.95;;;21.20;42.20;;;;;;5034495;28;20175;-49
2020/12/03 02:56:36;;;;;;;1.17;0.68;;;21.10;42.70;;;;;;5036800;28;20099;-46
2020/12/03 02:59:06;;;;;;;1.35;0.77;;;21.10;42.20;;;;;;5047716;28;20040;-45
2020/12/03 03:01:32;;;;;;;1.48;0.88;;;21.10;42.20;;;;;;5047359;28;20044;-45
2020/12/03 03:03:58;;;;;;;3.97;1.30;;;21.10;42.20;;;;;;5035003;28;20042;-46
2020/12/03 03:06:24;;;;;;;1.40;1.08;;;21.00;42.20;;;;;;5040124;28;20501;-48
2020/12/03 03:08:50;;;;;;;2.35;0.90;;;21.00;42.30;;;;;;5042274;28;20071;-45
2020/12/03 03:11:15;;;;;;;3.22;1.15;;;21.00;42.30;;;;;;5047408;28;20025;-45
2020/12/03 03:13:41;;;;;;;1.33;1.08;;;21.00;42.40;;;;;;5029696;28;20536;-47
2020/12/03 03:16:07;;;;;;;0.93;0.80;;;21.00;42.40;;;;;;5030233;28;20140;-45
2020/12/03 03:18:33;;;;;;;1.10;0.70;;;21.00;42.40;;;;;;5041425;28;20038;-45
2020/12/03 03:20:58;;;;;;;1.60;0.82;;;20.90;42.40;;;;;;5045848;28;20490;-47
2020/12/03 03:23:24;;;;;;;1.27;0.80;;;20.90;42.40;;;;;;5045462;28;20021;-47
2020/12/03 03:25:50;;;;;;;1.23;0.82;;;20.90;42.50;;;;;;5049783;28;20032;-47
2020/12/03 03:28:16;;;;;;;1.20;0.82;;;20.90;42.40;;;;;;5043325;28;20029;-45
2020/12/03 03:30:41;;;;;;;1.00;0.70;;;20.90;42.40;;;;;;5033746;28;20092;-48
2020/12/03 03:33:07;;;;;;;1.80;1.02;;;20.90;42.50;;;;;;5055052;28;20040;-47
2020/12/03 03:35:33;;;;;;;1.20;0.80;;;20.90;42.50;;;;;;5040885;28;20091;-47
2020/12/03 03:37:58;;;;;;;1.42;1.27;;;20.90;42.50;;;;;;5038223;28;20086;-46
2020/12/03 03:40:25;;;;;;;1.58;0.80;;;20.80;42.40;;;;;;5046465;28;20041;-46
2020/12/03 03:42:50;;;;;;;1.00;0.80;;;20.80;42.40;;;;;;5046404;28;20474;-46
2020/12/03 03:45:16;;;;;;;1.83;0.95;;;20.80;42.50;;;;;;5039967;28;20112;-45
2020/12/03 03:47:43;;;;;;;1.17;0.98;;;20.80;42.50;;;;;;5038653;28;20044;-47
2020/12/03 03:50:09;;;;;;;1.30;0.73;;;20.80;42.50;;;;;;5046607;28;20074;-48
2020/12/03 03:52:35;;;;;;;1.30;0.80;;;20.80;42.50;;;;;;5048699;28;20028;-46
2020/12/03 03:55:01;;;;;;;1.10;0.80;;;20.70;42.50;;;;;;5046479;28;20036;-45
2020/12/03 03:57:27;;;;;;;1.13;0.95;;;20.70;42.50;;;;;;5052316;28;20025;-48
2020/12/03 03:59:53;;;;;;;1.13;0.68;;;20.70;42.50;;;;;;5047344;28;20401;-47
2020/12/03 04:02:20;;;;;;;1.00;0.80;;;20.70;42.50;;;;;;5050630;28;20039;-48
2020/12/03 04:04:47;;;;;;;1.15;0.63;;;20.70;42.60;;;;;;5040709;28;20044;-45
2020/12/03 04:07:13;;;;;;;2.42;0.70;;;20.70;42.60;;;;;;5052022;28;20033;-46
2020/12/03 04:09:39;;;;;;;1.27;0.95;;;20.70;42.60;;;;;;5044003;28;20037;-46
2020/12/03 04:12:05;;;;;;;1.67;0.70;;;20.70;42.60;;;;;;5050322;28;20413;-46
2020/12/03 04:14:31;;;;;;;1.40;0.60;;;20.70;42.60;;;;;;5044592;28;20037;-45
2020/12/03 04:16:57;;;;;;;2.55;0.90;;;20.60;42.60;;;;;;5051454;28;20057;-47
2020/12/03 04:19:22;;;;;;;1.25;0.70;;;20.60;42.60;;;;;;5048729;28;20065;-46
2020/12/03 04:21:48;;;;;;;0.88;0.55;;;20.60;42.70;;;;;;5050663;28;20041;-47
2020/12/03 04:24:14;;;;;;;1.20;0.90;;;20.60;42.60;;;;;;5041352;28;20041;-48
2020/12/03 04:26:39;;;;;;;0.85;0.65;;;20.60;42.70;;;;;;5042448;28;20025;-47
2020/12/03 04:29:05;;;;;;;1.25;0.80;;;20.60;42.70;;;;;;5043385;28;20037;-47
2020/12/03 04:31:30;;;;;;;1.40;0.80;;;20.60;42.70;;;;;;5045239;28;20120;-46
2020/12/03 04:33:56;;;;;;;0.90;0.47;;;20.50;42.60;;;;;;5046655;28;20040;-48
2020/12/03 04:36:22;;;;;;;1.10;0.70;;;20.60;42.70;;;;;;5031370;28;20029;-46
2020/12/03 04:38:47;;;;;;;1.00;0.77;;;20.60;42.70;;;;;;5045980;28;20041;-45
2020/12/03 04:41:13;;;;;;;1.20;0.75;;;20.50;42.70;;;;;;5050674;28;21776;-45
2020/12/03 04:43:44;;;;;;;1.70;0.90;;;20.50;42.70;;;;;;5049504;28;20033;-48
2020/12/03 04:46:43;;;;;;;1.10;0.60;;;20.50;42.70;;;;;;5048841;28;20536;-47
2020/12/03 04:49:36;;;;;;;1.38;0.65;;;20.50;42.60;;;;;;5049715;28;20279;-46
2020/12/03 04:52:16;;;;;;;1.20;0.60;;;20.50;42.70;;;;;;5042945;28;20047;-45
2020/12/03 04:55:04;;;;;;;1.63;0.77;;;20.50;42.70;;;;;;5040727;28;20033;-49
2020/12/03 04:57:42;;;;;;;1.08;0.75;;;20.50;42.70;;;;;;5050618;28;20646;-46
2020/12/03 05:00:40;;;;;;;0.93;0.63;;;20.50;42.70;;;;;;5042924;28;20039;-46
2020/12/03 05:03:30;;;;;;;1.50;0.90;;;20.50;42.70;;;;;;5046958;28;20095;-50
2020/12/03 05:06:02;;;;;;;0.80;0.47;;;20.50;42.80;;;;;;5041197;28;20025;-47
2020/12/03 05:08:58;;;;;;;1.50;0.50;;;20.40;42.70;;;;;;5050467;28;20021;-46
2020/12/03 05:11:45;;;;;;;1.30;0.60;;;20.40;42.70;;;;;;5035246;28;20131;-46
2020/12/03 05:14:33;;;;;;;1.08;0.52;;;20.50;42.70;;;;;;5046506;28;20028;-47
2020/12/03 05:17:02;;;;;;;1.77;0.93;;;20.40;42.70;;;;;;5041383;28;20393;-49
2020/12/03 05:20:21;;;;;;;0.95;0.70;;;20.40;42.70;;;;;;5050210;28;20104;-49
2020/12/03 05:23:01;;;;;;;1.05;0.50;;;20.40;42.70;;;;;;4942727;29;20052;-45
2020/12/03 05:25:26;;;;;;;1.00;0.70;;;20.40;42.70;;;;;;5048424;28;20041;-47
2020/12/03 05:28:01;;;;;;;1.55;0.70;;;20.40;42.70;;;;;;5048657;28;20052;-47
2020/12/03 05:30:27;;;;;;;1.27;0.50;;;20.40;42.70;;;;;;5036884;28;20490;-46
2020/12/03 05:32:53;;;;;;;1.30;0.77;;;20.30;42.70;;;;;;5049309;28;20358;-46
2020/12/03 05:35:19;;;;;;;1.45;0.82;;;20.30;42.70;;;;;;5039831;28;20051;-44
2020/12/03 05:37:46;;;;;;;0.90;0.50;;;20.30;42.70;;;;;;5049776;28;20498;-46
2020/12/03 05:40:20;;;;;;;1.17;0.55;;;20.30;42.70;;;;;;5048656;28;20037;-46
2020/12/03 05:42:47;;;;;;;1.17;0.52;;;20.30;42.70;;;;;;5049309;28;20044;-47
2020/12/03 05:45:20;;;;;;;1.20;0.60;;;20.30;42.70;;;;;;5045648;28;20033;-46
2020/12/03 05:47:50;;;;;;;1.25;0.73;;;20.30;42.90;;;;;;5051848;28;20029;-46
2020/12/03 05:50:35;;;;;;;1.08;0.60;;;20.30;42.70;;;;;;5049739;28;20029;-46
2020/12/03 05:53:02;;;;;;;1.55;0.60;;;20.30;42.70;;;;;;5031327;28;20025;-46
2020/12/03 05:55:30;;;;;;;0.65;0.50;;;20.30;42.70;;;;;;5048578;28;20029;-48
2020/12/03 05:58:11;;;;;;;1.00;0.43;;;20.30;42.70;;;;;;5049330;28;20036;-47
2020/12/03 06:00:39;;;;;;;1.10;0.70;;;20.30;42.80;;;;;;5046262;28;20052;-46
2020/12/03 06:03:07;;;;;;;1.60;0.57;;;20.30;42.70;;;;;;5048342;28;20095;-51
2020/12/03 06:06:25;;;;;;;1.00;0.50;;;20.30;42.70;;;;;;5047814;28;20037;-44
2020/12/03 06:09:11;;;;;;;2.08;0.47;;;20.30;42.70;;;;;;5045007;28;20029;-47
2020/12/03 06:11:51;;;;;;;1.20;0.63;;;20.30;42.80;;;;;;5029947;28;20028;-47
2020/12/03 06:15:21;;;;;;;3.13;0.63;;;20.20;42.70;;;;;;5045999;28;20029;-47
2020/12/03 06:18:21;;;;;;;0.82;0.43;;;20.20;42.70;;;;;;4964720;28;20146;-50
2020/12/03 06:21:05;;;;;;;0.95;0.47;;;20.20;42.80;;;;;;4967301;28;20035;-46
2020/12/03 06:23:39;;;;;;;1.92;0.50;;;20.20;42.80;;;;;;5037926;28;20053;-45
2020/12/03 06:26:32;;;;;;;0.90;0.40;;;20.20;42.80;;;;;;5029291;28;20026;-50
2020/12/03 06:29:10;;;;;;;0.70;0.50;;;20.20;42.70;;;;;;5040560;28;20028;-48
2020/12/03 06:31:57;;;;;;;0.73;0.32;;;20.20;42.80;;;;;;5048158;28;20061;-46
2020/12/03 06:34:32;;;;;;;0.90;0.30;;;20.20;42.70;;;;;;5036784;28;20051;-45
2020/12/03 06:37:02;;;;;;;0.52;0.25;;;20.30;42.70;;;;;;5048226;28;20502;-45
2020/12/03 06:39:49;;;;;;;1.35;0.52;;;20.30;42.50;;;;;;5029949;28;20028;-44
2020/12/03 06:42:33;;;;;;;1.00;0.32;;;20.50;42.40;;;;;;5030554;28;20074;-48
2020/12/03 06:45:04;;;;;;;0.70;0.35;;;20.50;42.10;;;;;;5034521;28;20036;-47
2020/12/03 06:47:55;;;;;;;1.25;0.40;;;20.60;42.00;;;;;;5047238;28;20577;-46
2020/12/03 06:50:34;;;;;;;0.73;0.30;;;20.80;41.80;;;;;;5046048;28;20033;-48
2020/12/03 06:53:27;;;;;;;0.90;0.40;;;20.80;41.60;;;;;;5046940;28;20126;-45
2020/12/03 06:56:21;;;;;;;0.68;0.30;;;20.90;41.60;;;;;;5040581;28;20517;-48
2020/12/03 06:59:08;;;;;;;0.80;0.32;;;20.90;41.60;;;;;;5029019;28;20025;-46
2020/12/03 07:01:57;;;;;;;0.70;0.30;;;21.00;41.60;;;;;;5039767;28;20033;-46
2020/12/03 07:04:55;;;;;;;0.60;0.30;;;21.00;41.60;;;;;;5045611;28;20061;-46
2020/12/03 07:07:54;;;;;;;0.40;0.20;;;21.00;41.50;;;;;;5039930;28;20406;-45
2020/12/03 07:10:44;;;;;;;1.05;0.20;;;21.00;41.50;;;;;;5040479;28;20065;-45
2020/12/03 07:13:22;;;;;;;0.82;0.40;;;21.00;41.60;;;;;;5028552;28;20039;-47
2020/12/03 07:16:08;;;;;;;1.08;0.30;;;21.00;41.50;;;;;;5047184;28;20056;-45
2020/12/03 07:19:15;;;;;;;1.08;0.30;;;21.00;41.50;;;;;;5045635;28;20108;-46
2020/12/03 07:22:05;;;;;;;0.77;0.30;;;21.10;41.40;;;;;;5044699;28;20482;-46
2020/12/03 07:24:35;;;;;;;1.30;0.57;;;21.10;41.30;;;;;;5046415;28;20028;-45
2020/12/03 07:27:10;;;;;;;0.95;0.30;;;21.10;41.30;;;;;;5045739;28;20029;-45
2020/12/03 07:29:58;;;;;;;0.82;0.32;;;21.10;41.20;;;;;;5048057;28;20048;-47
2020/12/03 07:32:31;;;;;;;1.67;0.85;;;21.10;41.20;;;;;;5047279;28;20032;-45
2020/12/03 07:35:37;;;;;;;1.67;0.60;;;21.10;41.10;;;;;;5048207;28;20040;-46
2020/12/03 07:38:06;;;;;;;3.97;0.63;;;21.10;41.10;;;;;;4995059;28;20044;-49
2020/12/03 07:40:33;;;;;;;1.38;0.38;;;21.00;41.10;;;;;;5045468;28;20124;-46
2020/12/03 07:43:05;;;;;;;1.42;0.40;;;21.00;41.20;;;;;;5052984;28;20044;-47
2020/12/03 07:45:43;;;;;;;1.83;0.40;;;21.00;41.20;;;;;;5057375;28;20469;-48
2020/12/03 07:48:22;;;;;;;1.42;0.43;;;21.00;41.30;;;;;;5049502;28;20036;-47
2020/12/03 07:51:02;;;;;;;1.98;0.70;;;20.90;41.30;;;;;;5043436;28;20033;-45
2020/12/03 07:53:30;;;;;;;3.53;0.88;;;20.90;41.30;;;;;;5040302;28;20029;-46
2020/12/03 07:55:56;;;;;;;1.83;0.60;;;20.80;41.20;;;;;;5048007;28;20021;-46
2020/12/03 07:58:33;;;;;;;1.05;0.50;;;20.80;41.40;;;;;;5042917;28;20115;-47
2020/12/03 08:00:59;;;;;;;1.83;0.55;;;20.80;41.30;;;;;;5047055;28;20037;-46
2020/12/03 08:03:48;;;;;;;1.45;0.50;;;20.80;41.40;;;;;;5044792;28;20036;-48
2020/12/03 08:06:19;;;;;;;0.57;0.20;;;20.80;41.30;;;;;;5041872;28;20494;-44
2020/12/03 08:09:02;;;;;;;1.92;1.05;;;20.90;41.50;;;;;;5044044;28;20517;-45
2020/12/03 08:12:06;;;;;;;1.80;0.40;;;21.00;41.30;;;;;;5041899;28;20367;-43
2020/12/03 08:14:40;;;;;;;2.15;0.30;;;21.10;41.10;;;;;;5039285;28;20033;-43
2020/12/03 08:17:22;;;;;;;2.13;0.30;;;21.10;41.10;;;;;;5042511;28;20037;-43
2020/12/03 08:20:03;;;;;;;0.70;0.40;;;21.10;41.00;;;;;;5023391;28;20029;-43
2020/12/03 08:22:33;;;;;;;1.73;0.30;;;21.10;41.20;;;;;;5040734;28;20041;-49
2020/12/03 08:25:11;;;;;;;1.17;0.40;;;21.10;41.30;;;;;;5023008;28;20033;-45
2020/12/03 08:27:36;;;;;;;0.95;0.35;;;21.10;41.30;;;;;;5044499;28;20446;-49
2020/12/03 08:30:03;;;;;;;1.83;0.40;;;21.10;41.40;;;;;;5046493;28;20117;-44
2020/12/03 08:32:53;;;;;;;0.90;0.50;;;21.20;41.40;;;;;;5043909;28;20032;-44
2020/12/03 08:35:19;;;;;;;0.73;0.40;;;21.20;41.20;;;;;;5040111;28;20029;-47
2020/12/03 08:37:44;;;;;;;0.93;0.50;;;21.20;41.10;;;;;;5044819;28;20701;-45
2020/12/03 08:40:10;;;;;;;1.00;0.60;;;21.20;41.30;;;;;;5048485;28;20417;-45
2020/12/03 08:42:36;;;;;;;1.83;0.57;;;21.00;41.30;;;;;;5046984;28;20458;-47
2020/12/03 08:45:02;;;;;;;1.75;0.38;;;21.00;41.30;;;;;;5045264;28;20040;-45
2020/12/03 08:47:43;;;;;;;3.92;0.40;;;21.00;41.90;;;;;;5049376;28;20029;-48
2020/12/03 08:50:16;;;;;;;1.00;0.40;;;21.10;41.30;;;;;;5044131;28;20025;-46
2020/12/03 08:52:42;;;;;;;1.20;0.50;;;21.00;41.30;;;;;;5039262;28;20060;-47
2020/12/03 08:55:09;;;;;;;1.60;0.60;;;21.10;41.50;;;;;;5046537;28;20041;-46
2020/12/03 08:57:41;;;;;;;0.75;0.35;;;21.20;41.40;;;;;;5047723;28;20037;-47
2020/12/03 09:00:10;;;;;;;1.67;0.40;;;21.10;41.30;;;;;;5041423;28;20032;-49
2020/12/03 09:02:36;;;;;;;4.47;0.40;;;21.20;41.50;;;;;;5046813;28;20033;-48
2020/12/03 09:05:02;;;;;;;1.10;0.47;;;21.10;41.50;;;;;;5043146;28;20083;-47
2020/12/03 09:07:31;;;;;;;2.60;0.40;;;21.10;41.60;;;;;;5046517;28;20032;-45
2020/12/03 09:09:58;;;;;;;1.35;0.35;;;21.20;41.50;;;;;;5044904;28;20029;-45
2020/12/03 09:12:28;;;;;;;3.38;0.50;;;21.10;41.60;;;;;;5027535;28;20689;-46
2020/12/03 09:14:56;;;;;;;0.68;0.30;;;21.20;41.80;;;;;;5040532;28;20087;-45
2020/12/03 09:17:26;;;;;;;0.80;0.40;;;21.20;41.60;;;;;;5046247;28;20121;-45
2020/12/03 09:19:53;;;;;;;0.73;0.25;;;21.20;41.70;;;;;;5046542;28;20024;-44
2020/12/03 09:22:22;;;;;;;0.57;0.20;;;21.20;41.70;;;;;;5045128;28;20426;-44
2020/12/03 09:24:48;;;;;;;0.80;0.30;;;21.20;41.70;;;;;;5043394;28;20433;-43
2020/12/03 09:27:15;;;;;;;0.73;0.20;;;21.30;41.60;;;;;;5048215;28;20686;-47
2020/12/03 09:29:50;;;;;;;0.90;0.30;;;21.50;41.30;;;;;;5048839;28;20614;-44
2020/12/03 09:32:19;;;;;;;1.02;0.40;;;21.60;41.20;;;;;;5045715;28;20021;-46
2020/12/03 09:34:46;;;;;;;0.65;0.30;;;21.60;41.10;;;;;;5049929;28;20032;-46
2020/12/03 09:37:12;;;;;;;0.75;0.30;;;21.70;41.10;;;;;;5047022;28;20112;-46
2020/12/03 09:39:38;;;;;;;1.23;0.30;;;21.90;41.00;;;;;;5047199;28;20125;-46
2020/12/03 09:42:10;;;;;;;0.90;0.28;;;21.90;40.90;;;;;;5032130;28;20044;-47
2020/12/03 09:44:36;;;;;;;1.83;0.20;;;21.90;40.80;;;;;;5046763;28;20061;-47
2020/12/03 09:47:18;;;;;;;0.70;0.30;;;21.90;40.90;;;;;;5051671;28;20025;-45
2020/12/03 09:49:45;;;;;;;0.88;0.30;;;21.90;41.00;;;;;;5046058;28;20037;-45
2020/12/03 09:52:15;;;;;;;0.80;0.30;;;22.00;40.90;;;;;;5047305;28;20078;-46
2020/12/03 09:54:41;;;;;;;1.52;0.25;;;21.90;40.80;;;;;;5047959;28;20063;-46
2020/12/03 09:57:11;;;;;;;1.30;0.32;;;22.00;40.90;;;;;;5047404;28;20029;-44
2020/12/03 09:59:38;;;;;;;0.70;0.30;;;22.00;42.20;;;;;;5049555;28;20059;-47
2020/12/03 10:02:12;;;;;;;0.70;0.25;;;22.10;41.20;;;;;;5041987;28;20517;-45
2020/12/03 10:04:59;;;;;;;0.95;0.40;;;22.10;40.90;;;;;;5047269;28;20522;-44
2020/12/03 10:08:02;;;;;;;0.75;0.35;;;22.10;40.90;;;;;;5048129;28;20082;-46
2020/12/03 10:10:47;;;;;;;0.93;0.40;;;22.00;41.00;;;;;;5043650;28;20031;-48
2020/12/03 10:13:51;;;;;;;1.42;0.40;;;21.90;41.20;;;;;;5035679;28;20033;-47
2020/12/03 10:16:27;;;;;;;1.20;0.25;;;21.80;41.30;;;;;;5033282;28;20171;-43
2020/12/03 10:18:56;;;;;;;1.05;0.50;;;21.90;41.30;;;;;;5051252;28;20033;-47
2020/12/03 10:21:30;;;;;;;0.80;0.38;;;22.00;41.30;;;;;;5046269;28;20025;-45
2020/12/03 10:24:19;;;;;;;0.95;0.38;;;22.00;41.30;;;;;;5052116;28;20028;-43
2020/12/03 10:26:48;;;;;;;1.10;0.47;;;21.90;41.40;;;;;;5046255;28;20026;-42
2020/12/03 10:29:31;;;;;;;1.55;0.50;;;21.90;41.40;;;;;;5047048;28;20464;-42
2020/12/03 10:32:08;;;;;;;1.33;0.25;;;21.90;41.40;;;;;;5046852;28;20037;-48
2020/12/03 10:34:47;;;;;;;0.70;0.22;;;21.90;41.90;;;;;;5044765;28;20533;-46
2020/12/03 10:37:24;;;;;;;2.88;0.40;;;21.90;41.50;;;;;;5051336;28;20462;-44
2020/12/03 10:39:57;;;;;;;0.80;0.30;;;21.80;41.60;;;;;;5050227;28;20497;-44
2020/12/03 10:42:46;;;;;;;1.02;0.38;;;21.80;41.70;;;;;;5048536;28;20033;-44
2020/12/03 10:45:17;;;;;;;1.13;0.38;;;21.80;42.10;;;;;;5041759;28;20040;-45
2020/12/03 10:48:03;;;;;;;;;;;22.00;41.50;;;;;;5048781;28;20033;-44
2020/12/03 10:50:53;;;;;;;0.70;0.28;;;22.10;41.40;;;;;;5048232;28;19995;-43
2020/12/03 10:53:27;;;;;;;1.08;0.30;;;22.20;42.50;;;;;;5037299;28;20083;-41
2020/12/03 10:55:58;;;;;;;0.52;0.20;;;22.40;42.50;;;;;;5049498;28;20112;-42
2020/12/03 10:58:53;;;;;;;0.75;0.50;;;22.50;40.80;;;;;;5049753;28;20660;-48
2020/12/03 11:01:21;;;;;;;0.90;0.30;;;22.60;40.60;;;;;;5048637;28;20029;-48
2020/12/03 11:03:48;;;;;;;0.70;0.35;;;22.60;40.60;;;;;;5048074;28;20033;-44
2020/12/03 11:06:15;;;;;;;1.00;0.38;;;22.70;40.60;;;;;;5049324;28;20029;-45
2020/12/03 11:08:41;;;;;;;1.48;0.57;;;22.70;40.70;;;;;;5033989;28;20107;-44
2020/12/03 11:11:08;;;;;;;2.20;0.35;;;22.70;40.60;;;;;;5041904;28;20024;-43
2020/12/03 11:13:35;;;;;;;1.05;0.50;;;22.70;40.60;;;;;;5033687;28;20032;-43
2020/12/03 11:16:05;;;;;;;0.90;0.22;;;22.70;40.50;;;;;;5041986;28;20032;-46
2020/12/03 11:18:41;;;;;;;1.05;0.40;;;22.70;40.50;;;;;;5029067;28;20044;-48
2020/12/03 11:21:18;;;;;;;1.42;0.60;;;22.70;40.60;;;;;;5044545;28;20167;-47
2020/12/03 11:24:04;;;;;;;1.00;0.60;;;22.80;40.60;;;;;;5041335;28;20486;-46
2020/12/03 11:26:34;;;;;;;0.77;0.30;;;22.80;40.50;;;;;;5030227;28;20036;-46
2020/12/03 11:29:13;;;;;;;0.60;0.30;;;22.80;40.50;;;;;;5048424;28;20084;-42
2020/12/03 11:31:39;;;;;;;1.23;0.40;;;22.90;40.60;;;;;;5048433;28;20061;-41
2020/12/03 11:34:06;;;;;;;2.58;0.60;;;22.90;40.50;;;;;;5048059;28;20033;-41
2020/12/03 11:36:40;;;;;;;0.90;0.40;;;22.90;41.10;;;;;;5043006;28;20108;-41
2020/12/03 11:39:08;;;;;;;1.00;0.40;;;22.90;40.50;;;;;;5037556;28;20063;-49
2020/12/03 11:49:54;;;;;;;0.60;0.38;;;22.80;40.80;;;;;;5046463;28;20045;-45
2020/12/03 11:52:21;;;;;;;1.20;0.65;;;22.70;41.00;;;;;;5048445;28;20040;-39
2020/12/03 11:54:47;;;;;;;1.73;0.60;;;22.70;41.20;;;;;;5047780;28;20037;-45
2020/12/03 11:57:16;;;;;;;1.02;0.38;;;22.70;41.10;;;;;;5041860;28;20029;-47
2020/12/03 11:59:42;;;;;;;2.50;0.47;;;22.70;41.00;;;;;;5041253;28;20505;-46
2020/12/03 12:02:10;;;;;;;1.02;0.45;;;22.60;41.10;;;;;;5036683;28;20025;-44
2020/12/03 12:05:00;;;;;;;1.35;0.45;;;22.50;41.30;;;;;;5038385;28;20056;-43
2020/12/03 12:07:52;;;;;;;0.80;0.60;;;22.50;41.20;;;;;;5041051;28;20029;-43
2020/12/03 12:10:25;;;;;;;1.83;0.70;;;22.40;41.80;;;;;;5036990;28;20103;-42
2020/12/03 12:12:50;;;;;;;1.42;0.50;;;22.30;41.50;;;;;;5044752;28;20036;-43
2020/12/03 12:15:16;;;;;;;1.00;0.65;;;22.30;41.60;;;;;;5048060;28;20041;-42
2020/12/03 12:17:42;;;;;;;1.17;0.45;;;22.30;41.80;;;;;;5052112;28;20106;-42
2020/12/03 12:20:10;;;;;;;2.03;0.55;;;22.30;41.70;;;;;;5049831;28;20448;-42
2020/12/03 12:22:36;;;;;;;2.17;1.05;;;22.30;41.80;;;;;;5051128;28;20113;-41
2020/12/03 12:25:02;;;;;;;1.48;0.70;;;22.20;41.80;;;;;;5050309;28;20116;-46
2020/12/03 12:27:27;;;;;;;1.92;0.47;;;22.20;42.00;;;;;;5049584;28;20139;-46
2020/12/03 12:29:53;;;;;;;2.20;0.57;;;22.20;41.90;;;;;;5046088;28;20443;-44
2020/12/03 12:32:19;;;;;;;1.30;0.40;;;22.10;41.90;;;;;;5048367;28;20033;-46
2020/12/03 12:34:45;;;;;;;0.98;0.52;;;22.10;42.00;;;;;;5047096;28;20037;-45
2020/12/03 12:37:11;;;;;;;1.17;0.55;;;22.10;42.00;;;;;;5048225;28;20039;-43
2020/12/03 12:39:38;;;;;;;1.02;0.50;;;22.20;41.90;;;;;;5045331;28;20051;-43
2020/12/03 12:42:05;;;;;;;1.23;0.65;;;22.30;41.80;;;;;;5050353;28;20063;-45
2020/12/03 12:44:31;;;;;;;2.67;0.40;;;22.20;41.80;;;;;;5049898;28;20128;-42
2020/12/03 12:46:58;;;;;;;1.90;0.60;;;22.20;42.00;;;;;;5047914;28;20487;-45
2020/12/03 12:49:25;;;;;;;2.35;0.70;;;22.20;42.00;;;;;;5048642;28;20518;-44
2020/12/03 12:51:51;;;;;;;1.42;0.70;;;22.10;42.10;;;;;;5037550;28;20037;-45
2020/12/03 12:54:21;;;;;;;0.85;0.50;;;22.10;42.10;;;;;;5049267;28;20079;-45
2020/12/03 12:56:47;;;;;;;0.80;0.45;;;22.20;42.20;;;;;;5050784;28;20036;-48
2020/12/03 12:59:14;;;;;;;0.45;0.30;;;22.40;41.90;;;;;;5047390;28;20036;-45
2020/12/03 13:01:58;;;;;;;1.95;0.40;;;22.50;41.60;;;;;;5049987;28;20028;-48
2020/12/03 13:04:24;;;;;;;1.52;0.68;;;22.50;41.50;;;;;;5047839;28;20040;-44
2020/12/03 13:06:54;;;;;;;0.65;0.30;;;22.70;41.50;;;;;;5034636;28;20030;-45
2020/12/03 13:09:20;;;;;;;2.88;0.38;;;22.80;41.30;;;;;;5044889;28;20033;-47
2020/12/03 13:11:45;;;;;;;1.45;0.55;;;22.80;41.20;;;;;;5049179;28;20029;-48
2020/12/03 13:14:12;;;;;;;1.77;0.30;;;22.90;41.20;;;;;;5048174;28;20102;-45
2020/12/03 13:16:38;;;;;;;0.80;0.28;;;22.90;41.10;;;;;;5050426;28;20100;-43
2020/12/03 13:19:05;;;;;;;1.15;0.43;;;22.80;41.20;;;;;;5043986;28;20484;-43
2020/12/03 13:21:32;;;;;;;1.00;0.40;;;22.90;41.30;;;;;;5048892;28;20098;-44
2020/12/03 13:23:58;;;;;;;0.80;0.30;;;22.90;41.40;;;;;;5048505;28;20516;-47